Map

Track Data

SID SEASON NUMBER BASIN SUBBASIN NAME ISO_TIME NATURE LAT LON WMO_WIND WMO_PRES WMO_AGENCY TRACK_TYPE DIST2LAND LANDFALL IFLAG USA_AGENCY USA_ATCF_ID USA_LAT USA_LON USA_RECORD USA_STATUS USA_WIND USA_PRES USA_SSHS USA_R34_NE USA_R34_SE USA_R34_SW USA_R34_NW USA_R50_NE USA_R50_SE USA_R50_SW USA_R50_NW USA_R64_NE USA_R64_SE USA_R64_SW USA_R64_NW USA_POCI USA_ROCI USA_RMW USA_EYE TOKYO_LAT TOKYO_LON TOKYO_GRADE TOKYO_WIND TOKYO_PRES TOKYO_R50_DIR TOKYO_R50_LONG TOKYO_R50_SHORT TOKYO_R30_DIR TOKYO_R30_LONG TOKYO_R30_SHORT TOKYO_LAND CMA_LAT CMA_LON CMA_CAT CMA_WIND CMA_PRES HKO_LAT HKO_LON HKO_CAT HKO_WIND HKO_PRES NEWDELHI_LAT NEWDELHI_LON NEWDELHI_GRADE NEWDELHI_WIND NEWDELHI_PRES NEWDELHI_CI NEWDELHI_DP NEWDELHI_POCI REUNION_LAT REUNION_LON REUNION_TYPE REUNION_WIND REUNION_PRES REUNION_TNUM REUNION_CI REUNION_RMW REUNION_R34_NE REUNION_R34_SE REUNION_R34_SW REUNION_R34_NW REUNION_R50_NE REUNION_R50_SE REUNION_R50_SW REUNION_R50_NW REUNION_R64_NE REUNION_R64_SE REUNION_R64_SW REUNION_R64_NW BOM_LAT BOM_LON BOM_TYPE BOM_WIND BOM_PRES BOM_TNUM BOM_CI BOM_RMW BOM_R34_NE BOM_R34_SE BOM_R34_SW BOM_R34_NW BOM_R50_NE BOM_R50_SE BOM_R50_SW BOM_R50_NW BOM_R64_NE BOM_R64_SE BOM_R64_SW BOM_R64_NW BOM_ROCI BOM_POCI BOM_EYE BOM_POS_METHOD BOM_PRES_METHOD NADI_LAT NADI_LON NADI_CAT NADI_WIND NADI_PRES WELLINGTON_LAT WELLINGTON_LON WELLINGTON_WIND WELLINGTON_PRES DS824_LAT DS824_LON DS824_STAGE DS824_WIND DS824_PRES TD9636_LAT TD9636_LON TD9636_STAGE TD9636_WIND TD9636_PRES TD9635_LAT TD9635_LON TD9635_WIND TD9635_PRES TD9635_ROCI NEUMANN_LAT NEUMANN_LON NEUMANN_CLASS NEUMANN_WIND NEUMANN_PRES MLC_LAT MLC_LON MLC_CLASS MLC_WIND MLC_PRES USA_GUST BOM_GUST BOM_GUST_PER REUNION_GUST REUNION_GUST_PER USA_SEAHGT USA_SEARAD_NE USA_SEARAD_SE USA_SEARAD_SW USA_SEARAD_NW STORM_SPEED STORM_DIR
1989097S12072 1989 31 SI MM LEZISSY 1989-04-06 15:00:00 TS -12.3624 71.9700 spur-other 1751 1669 ______________ -1 19 268
1989097S12072 1989 31 SI MM LEZISSY 1989-04-06 18:00:00 TS -12.4000 71.0000 44 984 reunion spur-other 1659 1572 _____O________ -1 -12.4000 71.0000 3 44 984 3.50000 3.50000 18 266
1989097S12072 1989 31 SI MM LEZISSY 1989-04-06 21:00:00 TS -12.5049 70.1027 spur-other 1572 1497 _____P________ -1 -12.5158 70.1225 3 44 984 16 259
1989097S12072 1989 31 SI MM LEZISSY 1989-04-07 00:00:00 TS -12.7000 69.4000 44 984 reunion spur-other 1497 1442 _____O________ -1 -12.7000 69.4000 3 44 984 3.50000 3.50000 12 247
1989097S12072 1989 31 SI MM LEZISSY 1989-04-07 03:00:00 TS -12.9922 68.9451 spur-other 1433 1396 _____P________ -1 -12.9922 68.9451 3 44 984 9 229
1989097S12072 1989 31 SI MM LEZISSY 1989-04-07 06:00:00 TS -13.3000 68.7000 44 984 reunion spur-other 1396 1374 _____O________ -1 -13.3000 68.7000 3 44 984 3.50000 3.50000 7 216
1989097S12072 1989 31 SI MM LEZISSY 1989-04-07 09:00:00 TS -13.5224 68.5474 spur-other 1365 1353 _____P________ -1 -13.5224 68.5474 3 40 987 4 206
1989097S12072 1989 31 SI MM LEZISSY 1989-04-07 12:00:00 TS -13.7000 68.5000 36 991 reunion spur-other 1353 1347 _____O________ -1 -13.7000 68.5000 3 36 991 3.00000 3.00000 3 190
1989097S12072 1989 31 SI MM LEZISSY 1989-04-07 15:00:00 TS -13.8575 68.4850 spur-other 1341 1335 _____P________ -1 -13.8575 68.4850 3 36 991 3 0
1989097S12072 1989 31 SI MM LEZISSY 1989-04-07 18:00:00 TS -14.0000 68.5000 36 991 reunion spur-other 1335 1329 _____O________ -1 -14.0000 68.5000 3 36 991 3.00000 3.00000 3 177
1989097S12072 1989 31 SI MM LEZISSY 1989-04-07 21:00:00 TS -14.1425 68.4850 spur-other 1329 1317 _____P________ -1 -14.1425 68.4850 3 36 991 3 0
1989097S12072 1989 31 SI MM LEZISSY 1989-04-08 00:00:00 TS -14.3000 68.5000 36 991 reunion spur-other 1317 1311 _____O________ -1 -14.3000 68.5000 3 36 991 3.00000 3.00000 4 163
1989097S12072 1989 31 SI MM LEZISSY 1989-04-08 03:00:00 TS -14.5000 68.5924 spur-other 1315 1309 _____P________ -1 -14.5000 68.5924 3 36 991 4 154
1989097S12072 1989 31 SI MM LEZISSY 1989-04-08 06:00:00 TS -14.7000 68.7000 36 991 reunion spur-other 1313 1308 _____O________ -1 -14.7000 68.7000 3 36 991 3.00000 3.00000 4 156
1989097S12072 1989 31 SI MM LEZISSY 1989-04-08 09:00:00 TS -14.8575 68.7575 spur-other 1312 1307 _____P________ -1 -14.8575 68.7575 3 32 994 3 163
1989097S12072 1989 31 SI MM LEZISSY 1989-04-08 12:00:00 TS -15.0000 68.8000 28 997 reunion spur-other 1307 1301 _____O________ -1 -15.0000 68.8000 2 28 997 2.50000 2.50000 3 161
1989097S12072 1989 31 SI MM LEZISSY 1989-04-08 15:00:00 TS -15.1275 68.8500 spur-other 1311 1301 _____P________ -1 -15.1275 68.8500 2 28 997 3 163
1989097S12072 1989 31 SI MM LEZISSY 1989-04-08 18:00:00 TS -15.3000 68.9000 28 997 reunion spur-other 1301 1286 _____O________ -1 -15.3000 68.9000 2 28 997 2.50000 2.50000 5 168
1989097S12072 1989 31 SI MM LEZISSY 1989-04-08 21:00:00 TS -15.6000 68.9500 spur-other 1286 1281 _____P________ -1 -15.5700 68.9500 2 28 997 6 171
1989097S12072 1989 31 SI MM LEZISSY 1989-04-09 00:00:00 TS -15.9000 69.0000 28 997 reunion spur-other 1281 _____O________ -1 -15.9000 69.0000 2 28 997 2.50000 2.50000 6 175

About IBTrACS Database

This database is a web-friendly format of International Best Track Archive for Climate Stewardship (IBTrACS), a global best track data archive curated by NOAA dating back to 1842.

Updated: 2021-10-08